CheckWX is a tool to help pilots better visualize weather data.  It is not intended as a substitute for an official pre-flight weather briefing.

16:57:55 UTC

KMCW METAR
Mason City Municipal Airport
Mason City, Iowa, USA
Current

1 hour ago

KMCW 171553Z AUTO 18009KT 10SM CLR 09/03 A3004 RMK AO2 SLP176 T00890033
Observed
Oct-17 @ 15:53 UTC
Wind
  • 180° at 9 KTS
Visibility
10 SM
Flight Rules
VFR
Cloud Levels
  • Clear skies
Temperature
C / 48°F
Dewpoint
C / 37°F
Humidity
66%
Altimeter
30.04" Hg
Pressure
1017.32 hPa
Previous

2 hours ago

KMCW 171453Z AUTO 15007KT 10SM CLR 07/03 A3005 RMK AO2 SLP181 I3000 T00670028 50007
Observed
Oct-17 @ 14:53 UTC
Wind
  • 150° at 7 KTS
Visibility
10 SM
Flight Rules
VFR
Cloud Levels
  • Clear skies
Temperature
C / 45°F
Dewpoint
C / 37°F
Humidity
76%
Altimeter
30.05" Hg
Pressure
1017.62 hPa
Previous

3 hours ago

KMCW 171353Z AUTO 12003KT 10SM CLR 02/01 A3006 RMK AO2 SLP185 T00220011
Observed
Oct-17 @ 13:53 UTC
Wind
  • 120° at 3 KTS
Visibility
10 SM
Flight Rules
VFR
Cloud Levels
  • Clear skies
Temperature
C / 36°F
Dewpoint
C / 34°F
Humidity
93%
Altimeter
30.06" Hg
Pressure
1017.92 hPa